createdAt,value
2023-01-17T00:01:31.406Z,6.21
2023-01-17T00:03:59.590Z,6.22
2023-01-17T00:06:25.970Z,6.22
2023-01-17T00:08:52.360Z,6.25
2023-01-17T00:11:18.745Z,6.24
2023-01-17T00:13:45.106Z,6.24
2023-01-17T00:16:11.567Z,6.22
2023-01-17T00:18:37.958Z,6.21
2023-01-17T00:21:04.347Z,6.22
2023-01-17T00:23:30.716Z,6.21
2023-01-17T00:25:57.325Z,6.21
2023-01-17T00:28:23.754Z,6.24
2023-01-17T00:30:50.347Z,6.25
2023-01-17T00:33:16.738Z,6.22
2023-01-17T00:35:43.126Z,6.24
2023-01-17T00:38:09.512Z,6.22
2023-01-17T00:40:35.908Z,6.22
2023-01-17T00:43:02.277Z,6.21
2023-01-17T00:45:28.638Z,6.24
2023-01-17T00:47:56.898Z,6.21
2023-01-17T00:50:23.334Z,6.21
2023-01-17T00:52:49.686Z,6.21
2023-01-17T00:55:16.064Z,6.21
2023-01-17T00:57:43.407Z,6.18
2023-01-17T01:00:09.805Z,6.21
2023-01-17T01:02:36.500Z,6.19
2023-01-17T01:05:02.981Z,6.21
2023-01-17T01:07:29.544Z,6.21
2023-01-17T01:09:55.916Z,6.19
2023-01-17T01:12:22.313Z,6.19
2023-01-17T01:14:48.710Z,6.22
2023-01-17T01:17:15.103Z,6.19
2023-01-17T01:19:41.673Z,6.21
2023-01-17T01:22:08.036Z,6.19
2023-01-17T01:24:34.615Z,6.21
2023-01-17T01:27:01.178Z,6.19
2023-01-17T01:29:27.759Z,6.19
2023-01-17T01:31:54.203Z,6.21
2023-01-17T01:34:20.805Z,6.18
2023-01-17T01:36:47.432Z,6.16
2023-01-17T01:39:14.080Z,6.15
2023-01-17T01:41:40.460Z,6.18
2023-01-17T01:44:06.812Z,6.15
2023-01-17T01:46:33.190Z,6.15
2023-01-17T01:48:59.592Z,6.15
2023-01-17T01:51:26.206Z,6.16
2023-01-17T01:53:52.597Z,6.14
2023-01-17T01:56:19.189Z,6.16
2023-01-17T01:58:45.757Z,6.12
2023-01-17T02:01:12.201Z,6.16
2023-01-17T02:03:38.643Z,6.15
2023-01-17T02:06:05.041Z,6.15
2023-01-17T02:08:31.435Z,6.15
2023-01-17T02:10:57.819Z,6.15
2023-01-17T02:16:11.243Z,6.14
2023-01-17T02:18:37.824Z,6.14
2023-01-17T02:21:04.160Z,6.15
2023-01-17T02:23:30.718Z,6.14
2023-01-17T02:25:57.062Z,6.12
2023-01-17T02:28:23.394Z,6.15
2023-01-17T02:30:49.747Z,6.14
2023-01-17T02:33:16.097Z,6.14
2023-01-17T02:35:42.655Z,6.14
2023-01-17T02:38:09.196Z,6.14
2023-01-17T02:40:35.534Z,6.15
2023-01-17T02:43:01.875Z,6.15
2023-01-17T02:45:28.323Z,6.16
2023-01-17T02:47:54.705Z,6.15
2023-01-17T02:50:21.252Z,6.15
2023-01-17T02:52:47.596Z,6.12
2023-01-17T02:55:14.144Z,6.12
2023-01-17T02:57:40.479Z,6.14
2023-01-17T03:00:06.854Z,6.14
2023-01-17T03:02:33.309Z,6.11
2023-01-17T03:04:59.906Z,6.12
2023-01-17T03:07:26.456Z,6.12
2023-01-17T03:09:52.779Z,6.14
2023-01-17T03:12:19.108Z,6.12
2023-01-17T03:14:45.460Z,6.14
2023-01-17T03:17:11.790Z,6.14
2023-01-17T03:19:38.351Z,6.12
2023-01-17T03:22:04.686Z,6.12
2023-01-17T03:24:31.229Z,6.14
2023-01-17T03:26:57.809Z,6.14
2023-01-17T03:29:24.146Z,6.11
2023-01-17T03:31:50.691Z,6.14
2023-01-17T03:34:17.026Z,6.14
2023-01-17T03:36:43.366Z,6.11
2023-01-17T03:39:09.711Z,6.12
2023-01-17T03:41:36.277Z,6.14
2023-01-17T03:44:02.617Z,6.11
2023-01-17T03:46:29.158Z,6.11
2023-01-17T03:48:55.718Z,6.11
2023-01-17T03:51:22.058Z,6.11
2023-01-17T03:53:48.605Z,6.11
2023-01-17T03:56:14.934Z,6.09
2023-01-17T03:58:41.481Z,6.11
2023-01-17T04:01:07.897Z,6.11
2023-01-17T04:03:34.301Z,6.11
2023-01-17T04:06:00.638Z,6.09
2023-01-17T04:08:26.973Z,6.11
2023-01-17T04:10:53.312Z,6.09
2023-01-17T04:13:19.666Z,6.11
2023-01-17T04:15:46.211Z,6.08
2023-01-17T04:18:12.552Z,6.09
2023-01-17T04:20:38.885Z,6.11
2023-01-17T04:23:05.242Z,6.11
2023-01-17T04:25:31.582Z,6.09
2023-01-17T04:27:57.919Z,6.08
2023-01-17T04:30:24.252Z,6.07
2023-01-17T04:32:51.034Z,6.07
2023-01-17T04:35:17.632Z,6.08
2023-01-17T04:37:43.968Z,6.09
2023-01-17T04:40:10.311Z,6.07
2023-01-17T04:42:36.860Z,6.07
2023-01-17T04:45:03.213Z,6.08
2023-01-17T04:47:29.552Z,6.08
2023-01-17T04:49:55.883Z,6.05
2023-01-17T04:52:22.443Z,6.05
2023-01-17T04:54:48.772Z,6.05
2023-01-17T04:57:15.104Z,6.05
2023-01-17T04:59:41.449Z,6.05
2023-01-17T05:02:07.823Z,6.04
2023-01-17T05:04:34.196Z,6.04
2023-01-17T05:07:00.551Z,6.04
2023-01-17T05:09:27.098Z,6.04
2023-01-17T05:11:54.235Z,6.04
2023-01-17T05:14:20.561Z,6.02
2023-01-17T05:16:46.897Z,6.04
2023-01-17T05:19:13.958Z,6.01
2023-01-17T05:21:40.303Z,6.02
2023-01-17T05:24:06.867Z,6.04
2023-01-17T05:26:33.208Z,5.99
2023-01-17T05:28:59.766Z,6.04
2023-01-17T05:31:26.374Z,6.01
2023-01-17T05:33:52.772Z,6.02
2023-01-17T05:36:21.088Z,6.01
2023-01-17T05:38:47.575Z,5.99
2023-01-17T05:41:13.920Z,6.01
2023-01-17T05:43:40.259Z,6.02
2023-01-17T05:46:06.616Z,5.99
2023-01-17T05:48:33.202Z,5.98
2023-01-17T05:50:59.753Z,5.99
2023-01-17T05:53:26.085Z,5.98
2023-01-17T05:55:52.424Z,5.99
2023-01-17T05:58:19.017Z,5.97
2023-01-17T06:00:45.383Z,5.95
2023-01-17T06:03:11.736Z,5.97
2023-01-17T06:05:38.076Z,5.97
2023-01-17T06:08:04.412Z,5.95
2023-01-17T06:10:30.746Z,5.97
2023-01-17T06:12:57.075Z,5.97
2023-01-17T06:15:23.616Z,5.93
2023-01-17T06:17:49.948Z,5.95
2023-01-17T06:20:16.277Z,5.95
2023-01-17T06:22:42.611Z,5.91
2023-01-17T06:25:08.991Z,5.94
2023-01-17T06:27:35.336Z,5.95
2023-01-17T06:30:01.669Z,5.93
2023-01-17T06:32:28.011Z,5.91
2023-01-17T06:34:54.356Z,5.91
2023-01-17T06:37:20.685Z,5.91
2023-01-17T06:39:47.025Z,5.93
2023-01-17T06:42:13.573Z,5.90
2023-01-17T06:44:39.938Z,5.91
2023-01-17T06:47:06.282Z,5.91
2023-01-17T06:49:32.623Z,5.90
2023-01-17T06:51:58.979Z,5.91
2023-01-17T06:54:25.310Z,5.90
2023-01-17T06:56:51.648Z,5.90
2023-01-17T06:59:18.538Z,5.87
2023-01-17T07:01:44.925Z,5.88
2023-01-17T07:04:11.355Z,5.88
2023-01-17T07:06:37.744Z,5.88
2023-01-17T07:09:04.085Z,5.86
2023-01-17T07:11:30.654Z,5.87
2023-01-17T07:13:56.992Z,5.86
2023-01-17T07:16:23.349Z,5.87
2023-01-17T07:18:49.705Z,5.87
2023-01-17T07:21:16.269Z,5.86
2023-01-17T07:23:42.603Z,5.81
2023-01-17T07:26:09.164Z,5.84
2023-01-17T07:28:35.582Z,5.83
2023-01-17T07:31:01.945Z,5.84
2023-01-17T07:33:28.522Z,5.83
2023-01-17T07:35:55.062Z,5.83
2023-01-17T07:38:21.395Z,5.81
2023-01-17T07:40:47.736Z,5.80
2023-01-17T07:43:14.130Z,5.80
2023-01-17T07:45:40.529Z,5.80
2023-01-17T07:48:07.076Z,5.83
2023-01-17T07:50:33.410Z,5.81
2023-01-17T07:52:59.965Z,5.80
2023-01-17T07:55:26.303Z,5.81
2023-01-17T07:57:52.640Z,5.78
2023-01-17T08:00:18.984Z,5.80
2023-01-17T08:02:45.316Z,5.77
2023-01-17T08:05:11.656Z,5.77
2023-01-17T08:07:38.003Z,5.80
2023-01-17T08:10:04.364Z,5.77
2023-01-17T08:12:30.717Z,5.77
2023-01-17T08:14:57.070Z,5.75
2023-01-17T08:17:23.629Z,5.77
2023-01-17T08:19:50.181Z,5.75
2023-01-17T08:22:16.505Z,5.75
2023-01-17T08:24:42.830Z,5.73
2023-01-17T08:27:09.178Z,5.74
2023-01-17T08:29:35.744Z,5.74
2023-01-17T08:32:02.344Z,5.75
2023-01-17T08:34:28.685Z,5.77
2023-01-17T08:36:55.228Z,5.73
2023-01-17T08:39:21.599Z,5.74
2023-01-17T08:41:47.958Z,5.74
2023-01-17T08:44:14.299Z,5.74
2023-01-17T08:46:40.631Z,5.75
2023-01-17T08:49:06.957Z,5.73
2023-01-17T08:51:33.279Z,5.74
2023-01-17T08:53:59.861Z,5.70
2023-01-17T08:56:26.231Z,5.73
2023-01-17T08:58:52.581Z,5.71
2023-01-17T09:01:18.996Z,5.71
2023-01-17T09:03:45.403Z,5.73
2023-01-17T09:06:11.745Z,5.70
2023-01-17T09:08:38.359Z,5.71
2023-01-17T09:11:04.712Z,5.70
2023-01-17T09:13:31.045Z,5.71
2023-01-17T09:15:57.382Z,5.71
2023-01-17T09:18:23.716Z,5.70
2023-01-17T09:20:50.057Z,5.71
2023-01-17T09:23:16.395Z,5.74
2023-01-17T09:25:42.736Z,5.70
2023-01-17T09:28:09.067Z,5.71
2023-01-17T09:30:36.159Z,5.71
2023-01-17T09:33:02.504Z,5.71
2023-01-17T09:35:28.837Z,5.68
2023-01-17T09:37:57.195Z,5.71
2023-01-17T09:40:23.650Z,5.71
2023-01-17T09:42:49.985Z,5.70
2023-01-17T09:45:16.522Z,5.71
2023-01-17T09:47:42.867Z,5.73
2023-01-17T09:50:09.428Z,5.71
2023-01-17T09:52:35.776Z,5.68
2023-01-17T09:55:02.113Z,5.73
2023-01-17T09:57:28.710Z,5.73
2023-01-17T10:00:02.979Z,5.70
2023-01-17T10:02:30.179Z,5.71
2023-01-17T10:04:56.683Z,5.74
2023-01-17T10:07:23.058Z,5.73
2023-01-17T10:09:49.404Z,5.71
2023-01-17T10:12:15.738Z,5.70
2023-01-17T10:14:42.074Z,5.74
2023-01-17T10:17:08.406Z,5.71
2023-01-17T10:19:34.752Z,5.71
2023-01-17T10:22:01.087Z,5.73
2023-01-17T10:24:27.645Z,5.73
2023-01-17T10:26:54.032Z,5.73
2023-01-17T10:29:21.250Z,5.73
2023-01-17T10:31:47.683Z,5.70
2023-01-17T10:34:14.027Z,5.71
2023-01-17T10:36:40.368Z,5.73
2023-01-17T10:39:06.711Z,5.74
2023-01-17T10:41:33.065Z,5.74
2023-01-17T10:43:59.424Z,5.74
2023-01-17T10:46:25.967Z,5.75
2023-01-17T10:48:52.314Z,5.75
2023-01-17T10:51:18.900Z,5.73
2023-01-17T10:53:45.255Z,5.77
2023-01-17T10:56:11.634Z,5.74
2023-01-17T10:58:37.970Z,5.75
2023-01-17T11:01:04.363Z,5.74
2023-01-17T11:03:30.722Z,5.77
2023-01-17T11:05:57.049Z,5.78
2023-01-17T11:08:23.396Z,5.77
2023-01-17T11:10:49.977Z,5.75
2023-01-17T11:13:16.330Z,5.77
2023-01-17T11:15:42.904Z,5.77
2023-01-17T11:18:09.254Z,5.77
2023-01-17T11:20:35.615Z,5.77
2023-01-17T11:23:02.181Z,5.75
2023-01-17T11:25:28.515Z,5.78
2023-01-17T11:27:54.843Z,5.77
2023-01-17T11:30:21.198Z,5.77
2023-01-17T11:32:47.532Z,5.77
2023-01-17T11:35:13.867Z,5.77
2023-01-17T11:37:40.187Z,5.77
2023-01-17T11:40:06.544Z,5.80
2023-01-17T11:42:32.902Z,5.81
2023-01-17T11:44:59.245Z,5.80
2023-01-17T11:47:25.584Z,5.80
2023-01-17T11:49:51.923Z,5.78
2023-01-17T11:52:18.268Z,5.80
2023-01-17T11:54:44.598Z,5.81
2023-01-17T11:57:10.927Z,5.80
2023-01-17T11:59:37.327Z,5.80
2023-01-17T12:02:03.683Z,5.81
2023-01-17T12:04:30.240Z,5.84
2023-01-17T12:06:58.341Z,5.83
2023-01-17T12:09:25.139Z,5.78
2023-01-17T12:11:51.489Z,5.81
2023-01-17T12:14:17.864Z,5.80
2023-01-17T12:16:44.208Z,5.81
2023-01-17T12:19:10.543Z,5.78
2023-01-17T12:21:37.098Z,5.81
2023-01-17T12:24:03.433Z,5.81
2023-01-17T12:26:29.762Z,5.81
2023-01-17T12:28:56.110Z,5.75
2023-01-17T12:31:22.502Z,5.84
2023-01-17T12:33:48.862Z,5.80
2023-01-17T12:36:15.200Z,5.80
2023-01-17T12:38:41.552Z,5.80
2023-01-17T12:41:08.140Z,5.81
2023-01-17T12:43:34.737Z,5.78
2023-01-17T12:46:01.081Z,5.73
2023-01-17T12:48:27.411Z,5.71
2023-01-17T12:50:53.745Z,5.80
2023-01-17T12:53:20.085Z,5.81
2023-01-17T12:55:46.423Z,5.77
2023-01-17T12:58:12.751Z,5.80
2023-01-17T13:00:39.191Z,5.78
2023-01-17T13:03:05.582Z,5.78
2023-01-17T13:05:31.959Z,5.78
2023-01-17T13:07:58.290Z,5.77
2023-01-17T13:10:24.645Z,5.78
2023-01-17T13:12:50.976Z,5.81
2023-01-17T13:15:17.321Z,5.78
2023-01-17T13:17:43.663Z,5.78
2023-01-17T13:20:10.236Z,5.78
2023-01-17T13:22:36.626Z,5.77
2023-01-17T13:25:02.956Z,5.77
2023-01-17T13:27:29.289Z,5.78
2023-01-17T13:29:55.617Z,5.80
2023-01-17T13:32:21.958Z,5.77
2023-01-17T13:34:48.302Z,5.75
2023-01-17T13:37:14.854Z,5.78
2023-01-17T13:39:41.206Z,5.75
2023-01-17T13:42:07.552Z,5.80
2023-01-17T13:44:33.883Z,5.81
2023-01-17T13:47:00.222Z,5.83
2023-01-17T13:49:26.560Z,5.83
2023-01-17T13:51:52.907Z,5.80
2023-01-17T13:54:19.237Z,5.71
2023-01-17T13:56:45.574Z,5.81
2023-01-17T13:59:12.155Z,5.84
2023-01-17T14:01:38.745Z,5.81
2023-01-17T14:04:05.171Z,5.78
2023-01-17T14:06:31.512Z,5.77
2023-01-17T14:08:57.863Z,5.80
2023-01-17T14:11:24.309Z,5.80
2023-01-17T14:13:50.639Z,5.80
2023-01-17T14:16:17.008Z,5.77
2023-01-17T14:18:43.382Z,5.78
2023-01-17T14:21:09.703Z,5.80
2023-01-17T14:23:36.054Z,5.78
2023-01-17T14:26:02.391Z,5.75
2023-01-17T14:28:28.725Z,5.78
2023-01-17T14:30:55.060Z,5.77
2023-01-17T14:33:21.401Z,5.83
2023-01-17T14:35:47.736Z,5.84
2023-01-17T14:38:14.062Z,5.83
2023-01-17T14:40:40.360Z,5.84
2023-01-17T14:43:06.684Z,5.83
2023-01-17T14:45:33.130Z,5.84
2023-01-17T14:47:59.511Z,5.83
2023-01-17T14:50:25.878Z,5.83
2023-01-17T14:52:52.215Z,5.81
2023-01-17T14:55:18.551Z,5.83
2023-01-17T14:57:44.888Z,5.83
2023-01-17T15:00:11.247Z,5.81
2023-01-17T15:02:37.826Z,5.83
2023-01-17T15:05:04.262Z,5.80
2023-01-17T15:07:30.603Z,5.81
2023-01-17T15:09:56.946Z,5.78
2023-01-17T15:12:23.320Z,5.83
2023-01-17T15:14:49.664Z,5.73
2023-01-17T15:17:16.007Z,5.75
2023-01-17T15:19:42.352Z,5.73
2023-01-17T15:22:08.678Z,5.81
2023-01-17T15:24:35.006Z,5.81
2023-01-17T15:27:01.340Z,5.80
2023-01-17T15:29:27.693Z,5.66
2023-01-17T15:31:54.057Z,5.71
2023-01-17T15:34:20.610Z,5.71
2023-01-17T15:36:46.938Z,5.75
2023-01-17T15:39:13.271Z,5.73
2023-01-17T15:41:39.676Z,5.71
2023-01-17T15:44:06.075Z,5.71
2023-01-17T15:46:32.418Z,5.71
2023-01-17T15:48:58.764Z,5.67
2023-01-17T15:51:25.098Z,5.73
2023-01-17T15:53:51.439Z,5.71
2023-01-17T15:56:17.785Z,5.73
2023-01-17T15:58:44.119Z,5.71
2023-01-17T16:01:10.534Z,5.74
2023-01-17T16:03:36.928Z,5.71
2023-01-17T16:06:03.254Z,5.71
2023-01-17T16:08:29.580Z,5.71
2023-01-17T16:10:56.163Z,5.71
2023-01-17T16:13:22.505Z,5.73
2023-01-17T16:15:48.897Z,5.71
2023-01-17T16:18:15.255Z,5.70
2023-01-17T16:20:41.594Z,5.67
2023-01-17T16:23:07.952Z,5.71
2023-01-17T16:25:34.295Z,5.73
2023-01-17T16:28:01.716Z,5.71
2023-01-17T16:30:28.063Z,5.68
2023-01-17T16:32:54.732Z,5.70
2023-01-17T16:35:21.153Z,5.66
2023-01-17T16:37:47.508Z,5.68
2023-01-17T16:40:13.843Z,5.70
2023-01-17T16:42:40.184Z,5.68
2023-01-17T16:45:06.537Z,5.66
2023-01-17T16:47:32.867Z,5.67
2023-01-17T16:49:59.204Z,5.67
2023-01-17T16:52:25.877Z,5.71
2023-01-17T16:54:54.718Z,5.68
2023-01-17T16:57:21.057Z,5.67
2023-01-17T16:59:50.919Z,5.68
2023-01-17T17:02:17.464Z,5.67
2023-01-17T17:04:43.812Z,5.67
2023-01-17T17:07:10.160Z,5.67
2023-01-17T17:09:36.507Z,5.66
2023-01-17T17:12:02.850Z,5.64
2023-01-17T17:14:29.190Z,5.64
2023-01-17T17:16:55.767Z,5.66
2023-01-17T17:19:22.107Z,5.66
2023-01-17T17:21:48.445Z,5.67
2023-01-17T17:24:14.772Z,5.66
2023-01-17T17:26:41.119Z,5.66
2023-01-17T17:29:07.472Z,5.64
2023-01-17T17:31:33.794Z,5.63
2023-01-17T17:34:00.389Z,5.63
2023-01-17T17:36:26.742Z,5.64
2023-01-17T17:38:53.083Z,5.64
2023-01-17T17:41:19.468Z,5.63
2023-01-17T17:43:45.798Z,5.64
2023-01-17T17:46:12.416Z,5.64
2023-01-17T17:48:38.754Z,5.64
2023-01-17T17:51:05.140Z,5.64
2023-01-17T17:53:31.561Z,5.66
2023-01-17T17:55:57.886Z,5.64
2023-01-17T17:58:24.234Z,5.66
2023-01-17T18:00:50.597Z,5.64
2023-01-17T18:03:16.944Z,5.61
2023-01-17T18:05:43.280Z,5.63
2023-01-17T18:08:09.621Z,5.63
2023-01-17T18:10:35.955Z,5.64
2023-01-17T18:13:04.654Z,5.64
2023-01-17T18:15:30.989Z,5.66
2023-01-17T18:17:57.322Z,5.63
2023-01-17T18:20:26.318Z,5.66
2023-01-17T18:22:52.647Z,5.61
2023-01-17T18:25:21.264Z,5.64
2023-01-17T18:27:47.594Z,5.63
2023-01-17T18:30:13.933Z,5.63
2023-01-17T18:32:40.261Z,5.63
2023-01-17T18:35:06.613Z,5.63
2023-01-17T18:37:32.958Z,5.64
2023-01-17T18:39:59.308Z,5.66
2023-01-17T18:42:25.644Z,5.63
2023-01-17T18:44:51.977Z,5.64
2023-01-17T18:47:18.312Z,5.64
2023-01-17T18:49:44.851Z,5.61
2023-01-17T18:52:11.187Z,5.66
2023-01-17T18:54:37.520Z,5.64
2023-01-17T18:57:03.877Z,5.66
2023-01-17T18:59:30.221Z,5.64
2023-01-17T19:01:56.654Z,5.66
2023-01-17T19:04:23.278Z,5.67
2023-01-17T19:06:50.370Z,5.64
2023-01-17T19:09:16.831Z,5.64
2023-01-17T19:11:43.217Z,5.66
2023-01-17T19:14:09.540Z,5.64
2023-01-17T19:16:36.152Z,5.68
2023-01-17T19:19:02.655Z,5.67
2023-01-17T19:21:28.999Z,5.61
2023-01-17T19:23:55.592Z,5.66
2023-01-17T19:26:21.923Z,5.63
2023-01-17T19:28:48.446Z,5.63
2023-01-17T19:31:14.938Z,5.63
2023-01-17T19:33:41.323Z,5.64
2023-01-17T19:36:07.658Z,5.66
2023-01-17T19:38:34.002Z,5.64
2023-01-17T19:41:00.346Z,5.66
2023-01-17T19:43:26.702Z,5.66
2023-01-17T19:45:53.057Z,5.63
2023-01-17T19:48:19.405Z,5.64
2023-01-17T19:50:45.731Z,5.64
2023-01-17T19:53:12.067Z,5.64
2023-01-17T19:55:38.409Z,5.63
2023-01-17T19:58:04.754Z,5.63
2023-01-17T20:00:31.101Z,5.66
2023-01-17T20:02:57.625Z,5.63
2023-01-17T20:05:24.035Z,5.63
2023-01-17T20:07:50.601Z,5.61
2023-01-17T20:10:16.948Z,5.61
2023-01-17T20:12:43.285Z,5.64
2023-01-17T20:15:09.837Z,5.61
2023-01-17T20:17:36.167Z,5.63
2023-01-17T20:20:02.720Z,5.64
2023-01-17T20:22:29.057Z,5.64
2023-01-17T20:24:55.395Z,5.63
2023-01-17T20:27:21.744Z,5.64
2023-01-17T20:29:48.078Z,5.63
2023-01-17T20:32:14.418Z,5.61
2023-01-17T20:34:40.748Z,5.63
2023-01-17T20:37:07.085Z,5.61
2023-01-17T20:39:33.423Z,5.61
2023-01-17T20:41:59.977Z,5.61
2023-01-17T20:44:26.321Z,5.60
2023-01-17T20:46:52.661Z,5.60
2023-01-17T20:49:21.471Z,5.60
2023-01-17T20:51:47.811Z,5.61
2023-01-17T20:54:14.369Z,5.61
2023-01-17T20:56:40.699Z,5.60
2023-01-17T20:59:07.246Z,5.63
2023-01-17T21:01:33.880Z,5.61
2023-01-17T21:04:00.280Z,5.63
2023-01-17T21:06:26.817Z,5.60
2023-01-17T21:08:53.172Z,5.59
2023-01-17T21:11:19.712Z,5.61
2023-01-17T21:13:46.263Z,5.61
2023-01-17T21:16:12.869Z,5.61
2023-01-17T21:18:39.217Z,5.64
2023-01-17T21:21:05.563Z,5.60
2023-01-17T21:23:31.904Z,5.61
2023-01-17T21:25:58.238Z,5.61
2023-01-17T21:28:24.623Z,5.61
2023-01-17T21:30:50.997Z,5.60
2023-01-17T21:33:17.396Z,5.59
2023-01-17T21:35:43.722Z,5.61
2023-01-17T21:38:10.132Z,5.60
2023-01-17T21:40:36.477Z,5.59
2023-01-17T21:43:02.837Z,5.59
2023-01-17T21:45:29.167Z,5.60
2023-01-17T21:47:55.810Z,5.60
2023-01-17T21:50:32.740Z,5.59
2023-01-17T21:52:59.801Z,5.59
2023-01-17T21:55:26.141Z,5.59
2023-01-17T21:57:52.479Z,5.60
2023-01-17T22:00:18.825Z,5.60
2023-01-17T22:02:45.231Z,5.60
2023-01-17T22:05:11.610Z,5.70
2023-01-17T22:07:38.156Z,5.68
2023-01-17T22:10:04.496Z,5.64
2023-01-17T22:12:31.059Z,5.63
2023-01-17T22:14:57.407Z,5.61
2023-01-17T22:17:23.953Z,5.63
2023-01-17T22:19:50.303Z,5.57
2023-01-17T22:22:16.639Z,5.61
2023-01-17T22:24:42.991Z,5.64
2023-01-17T22:27:09.313Z,5.61
2023-01-17T22:29:35.635Z,5.60
2023-01-17T22:32:01.984Z,5.61
2023-01-17T22:34:28.556Z,5.60
2023-01-17T22:36:54.895Z,5.61
2023-01-17T22:39:21.239Z,5.60
2023-01-17T22:41:47.582Z,5.61
2023-01-17T22:44:13.917Z,5.60
2023-01-17T22:46:40.711Z,5.61
2023-01-17T22:49:07.085Z,5.61
2023-01-17T22:51:33.414Z,5.60
2023-01-17T22:53:59.763Z,5.61
2023-01-17T22:56:26.320Z,5.63
2023-01-17T22:58:52.668Z,5.61
2023-01-17T23:01:19.079Z,5.60
2023-01-17T23:03:45.493Z,5.59
2023-01-17T23:06:11.896Z,5.61
2023-01-17T23:08:38.215Z,5.60
2023-01-17T23:11:04.561Z,5.60
2023-01-17T23:13:30.902Z,5.63
2023-01-17T23:15:57.283Z,5.63
2023-01-17T23:18:23.846Z,5.59
2023-01-17T23:20:50.178Z,5.61
2023-01-17T23:23:16.541Z,5.63
2023-01-17T23:25:42.878Z,5.61
2023-01-17T23:28:09.638Z,5.59
2023-01-17T23:30:35.976Z,5.60
2023-01-17T23:33:02.528Z,5.61
2023-01-17T23:35:29.074Z,5.59
2023-01-17T23:37:55.449Z,5.60
2023-01-17T23:40:22.028Z,5.61
2023-01-17T23:42:48.382Z,5.59
2023-01-17T23:45:14.719Z,5.57
2023-01-17T23:47:41.055Z,5.56
2023-01-17T23:50:07.403Z,5.57
2023-01-17T23:52:33.755Z,5.59
2023-01-17T23:55:00.083Z,5.60
2023-01-17T23:57:26.447Z,5.59
2023-01-17T23:59:53.016Z,5.59
